sensor_id;sensor_type;location;lat;lon;timestamp;P1;durP1;ratioP1;P2;durP2;ratioP2
58240;SDS011;45058;55.772;38.224;2024-03-07T00:02:09;53.33;;;17.20;;
58240;SDS011;45058;55.772;38.224;2024-03-07T00:04:36;60.83;;;18.83;;
58240;SDS011;45058;55.772;38.224;2024-03-07T00:07:02;64.30;;;17.97;;
58240;SDS011;45058;55.772;38.224;2024-03-07T00:09:31;60.60;;;16.67;;
58240;SDS011;45058;55.772;38.224;2024-03-07T00:11:57;52.87;;;17.50;;
58240;SDS011;45058;55.772;38.224;2024-03-07T00:14:24;64.80;;;19.43;;
58240;SDS011;45058;55.772;38.224;2024-03-07T00:16:54;69.10;;;19.70;;
58240;SDS011;45058;55.772;38.224;2024-03-07T00:19:21;54.73;;;17.93;;
58240;SDS011;45058;55.772;38.224;2024-03-07T00:21:47;58.60;;;18.53;;
58240;SDS011;45058;55.772;38.224;2024-03-07T00:24:14;61.43;;;19.77;;
58240;SDS011;45058;55.772;38.224;2024-03-07T00:26:40;55.50;;;17.37;;
58240;SDS011;45058;55.772;38.224;2024-03-07T00:29:06;49.23;;;18.70;;
58240;SDS011;45058;55.772;38.224;2024-03-07T00:31:32;55.93;;;17.43;;
58240;SDS011;45058;55.772;38.224;2024-03-07T00:33:59;50.13;;;17.53;;
58240;SDS011;45058;55.772;38.224;2024-03-07T00:36:25;61.40;;;18.67;;
58240;SDS011;45058;55.772;38.224;2024-03-07T00:38:51;56.70;;;19.10;;
58240;SDS011;45058;55.772;38.224;2024-03-07T00:41:18;53.57;;;16.23;;
58240;SDS011;45058;55.772;38.224;2024-03-07T00:43:44;54.57;;;17.13;;
58240;SDS011;45058;55.772;38.224;2024-03-07T00:46:10;65.07;;;17.90;;
58240;SDS011;45058;55.772;38.224;2024-03-07T00:48:37;53.67;;;18.00;;
58240;SDS011;45058;55.772;38.224;2024-03-07T00:51:05;64.37;;;19.13;;
58240;SDS011;45058;55.772;38.224;2024-03-07T00:53:32;58.47;;;19.00;;
58240;SDS011;45058;55.772;38.224;2024-03-07T00:55:58;48.47;;;17.60;;
58240;SDS011;45058;55.772;38.224;2024-03-07T00:58:24;55.47;;;18.27;;
58240;SDS011;45058;55.772;38.224;2024-03-07T01:00:50;58.53;;;19.63;;
58240;SDS011;45058;55.772;38.224;2024-03-07T01:03:16;58.97;;;18.73;;
58240;SDS011;45058;55.772;38.224;2024-03-07T01:05:43;63.27;;;20.93;;
58240;SDS011;45058;55.772;38.224;2024-03-07T01:08:10;63.73;;;19.90;;
58240;SDS011;45058;55.772;38.224;2024-03-07T01:10:36;65.77;;;18.93;;
58240;SDS011;45058;55.772;38.224;2024-03-07T01:13:02;62.40;;;18.93;;
58240;SDS011;45058;55.772;38.224;2024-03-07T01:15:32;64.80;;;20.67;;
58240;SDS011;45058;55.772;38.224;2024-03-07T01:17:58;64.10;;;21.20;;
58240;SDS011;45058;55.772;38.224;2024-03-07T01:20:24;65.17;;;20.40;;
58240;SDS011;45058;55.772;38.224;2024-03-07T01:22:51;56.00;;;19.93;;
58240;SDS011;45058;55.772;38.224;2024-03-07T01:25:17;59.33;;;20.93;;
58240;SDS011;45058;55.772;38.224;2024-03-07T01:27:44;76.20;;;21.60;;
58240;SDS011;45058;55.772;38.224;2024-03-07T01:30:10;69.63;;;23.33;;
58240;SDS011;45058;55.772;38.224;2024-03-07T01:32:37;72.13;;;24.87;;
58240;SDS011;45058;55.772;38.224;2024-03-07T01:35:03;68.73;;;22.60;;
58240;SDS011;45058;55.772;38.224;2024-03-07T01:37:32;75.40;;;22.87;;
58240;SDS011;45058;55.772;38.224;2024-03-07T01:39:58;78.33;;;23.27;;
58240;SDS011;45058;55.772;38.224;2024-03-07T01:42:24;82.23;;;24.50;;
58240;SDS011;45058;55.772;38.224;2024-03-07T01:44:50;79.07;;;27.53;;
58240;SDS011;45058;55.772;38.224;2024-03-07T01:47:17;87.10;;;27.27;;
58240;SDS011;45058;55.772;38.224;2024-03-07T01:49:43;87.37;;;26.13;;
58240;SDS011;45058;55.772;38.224;2024-03-07T01:52:10;73.73;;;25.97;;
58240;SDS011;45058;55.772;38.224;2024-03-07T01:54:37;83.60;;;26.87;;
58240;SDS011;45058;55.772;38.224;2024-03-07T01:57:04;91.80;;;26.50;;
58240;SDS011;45058;55.772;38.224;2024-03-07T01:59:31;85.73;;;24.97;;
58240;SDS011;45058;55.772;38.224;2024-03-07T02:01:58;81.83;;;25.60;;
58240;SDS011;45058;55.772;38.224;2024-03-07T02:04:24;81.20;;;24.50;;
58240;SDS011;45058;55.772;38.224;2024-03-07T02:06:50;80.53;;;25.37;;
58240;SDS011;45058;55.772;38.224;2024-03-07T02:09:19;79.53;;;24.37;;
58240;SDS011;45058;55.772;38.224;2024-03-07T02:11:47;68.43;;;24.33;;
58240;SDS011;45058;55.772;38.224;2024-03-07T02:14:14;73.80;;;23.50;;
58240;SDS011;45058;55.772;38.224;2024-03-07T02:16:41;72.40;;;23.33;;
58240;SDS011;45058;55.772;38.224;2024-03-07T02:24:18;62.03;;;19.88;;
58240;SDS011;45058;55.772;38.224;2024-03-07T02:26:44;65.03;;;21.03;;
58240;SDS011;45058;55.772;38.224;2024-03-07T02:29:10;74.83;;;23.87;;
58240;SDS011;45058;55.772;38.224;2024-03-07T02:31:36;65.73;;;21.83;;
58240;SDS011;45058;55.772;38.224;2024-03-07T02:34:03;69.00;;;23.23;;
58240;SDS011;45058;55.772;38.224;2024-03-07T02:36:29;74.57;;;23.93;;
58240;SDS011;45058;55.772;38.224;2024-03-07T02:38:56;61.10;;;22.67;;
58240;SDS011;45058;55.772;38.224;2024-03-07T02:41:22;69.33;;;23.67;;
58240;SDS011;45058;55.772;38.224;2024-03-07T02:43:49;65.40;;;23.07;;
58240;SDS011;45058;55.772;38.224;2024-03-07T02:46:15;73.43;;;22.50;;
58240;SDS011;45058;55.772;38.224;2024-03-07T02:48:42;74.50;;;23.43;;
58240;SDS011;45058;55.772;38.224;2024-03-07T02:51:08;67.27;;;23.87;;
58240;SDS011;45058;55.772;38.224;2024-03-07T02:53:34;74.40;;;25.20;;
58240;SDS011;45058;55.772;38.224;2024-03-07T02:56:00;62.30;;;23.40;;
58240;SDS011;45058;55.772;38.224;2024-03-07T02:58:26;76.57;;;23.67;;
58240;SDS011;45058;55.772;38.224;2024-03-07T03:00:57;73.73;;;23.00;;
58240;SDS011;45058;55.772;38.224;2024-03-07T03:03:31;68.33;;;23.67;;
58240;SDS011;45058;55.772;38.224;2024-03-07T03:05:58;75.37;;;24.30;;
58240;SDS011;45058;55.772;38.224;2024-03-07T03:08:25;65.50;;;22.03;;
58240;SDS011;45058;55.772;38.224;2024-03-07T03:10:54;74.13;;;23.10;;
58240;SDS011;45058;55.772;38.224;2024-03-07T03:13:23;76.90;;;24.77;;
58240;SDS011;45058;55.772;38.224;2024-03-07T03:15:55;82.47;;;23.87;;
58240;SDS011;45058;55.772;38.224;2024-03-07T03:18:22;72.73;;;24.53;;
58240;SDS011;45058;55.772;38.224;2024-03-07T03:20:52;71.67;;;22.20;;
58240;SDS011;45058;55.772;38.224;2024-03-07T03:23:21;85.27;;;24.10;;
58240;SDS011;45058;55.772;38.224;2024-03-07T03:25:47;65.37;;;21.57;;
58240;SDS011;45058;55.772;38.224;2024-03-07T03:28:13;79.63;;;23.07;;
58240;SDS011;45058;55.772;38.224;2024-03-07T03:30:40;73.47;;;21.97;;
58240;SDS011;45058;55.772;38.224;2024-03-07T03:33:06;82.97;;;23.07;;
58240;SDS011;45058;55.772;38.224;2024-03-07T03:35:33;64.27;;;22.80;;
58240;SDS011;45058;55.772;38.224;2024-03-07T03:38:00;71.17;;;22.33;;
58240;SDS011;45058;55.772;38.224;2024-03-07T03:40:26;72.00;;;21.83;;
58240;SDS011;45058;55.772;38.224;2024-03-07T03:42:52;69.20;;;21.17;;
58240;SDS011;45058;55.772;38.224;2024-03-07T03:45:19;59.97;;;20.30;;
58240;SDS011;45058;55.772;38.224;2024-03-07T03:47:45;69.97;;;20.23;;
58240;SDS011;45058;55.772;38.224;2024-03-07T03:50:12;69.17;;;21.30;;
58240;SDS011;45058;55.772;38.224;2024-03-07T03:52:39;72.93;;;20.33;;
58240;SDS011;45058;55.772;38.224;2024-03-07T03:55:06;65.53;;;20.87;;
58240;SDS011;45058;55.772;38.224;2024-03-07T03:57:35;63.57;;;23.33;;
58240;SDS011;45058;55.772;38.224;2024-03-07T04:00:02;68.60;;;22.57;;
58240;SDS011;45058;55.772;38.224;2024-03-07T04:02:35;59.67;;;21.30;;
58240;SDS011;45058;55.772;38.224;2024-03-07T04:05:05;60.00;;;20.40;;
58240;SDS011;45058;55.772;38.224;2024-03-07T04:07:31;64.67;;;21.10;;
58240;SDS011;45058;55.772;38.224;2024-03-07T04:09:57;61.70;;;19.60;;
58240;SDS011;45058;55.772;38.224;2024-03-07T04:12:29;56.53;;;19.13;;
58240;SDS011;45058;55.772;38.224;2024-03-07T04:14:55;87.73;;;23.17;;
58240;SDS011;45058;55.772;38.224;2024-03-07T04:17:21;63.90;;;20.17;;
58240;SDS011;45058;55.772;38.224;2024-03-07T04:19:48;61.73;;;20.23;;
58240;SDS011;45058;55.772;38.224;2024-03-07T04:22:14;61.93;;;20.33;;
58240;SDS011;45058;55.772;38.224;2024-03-07T04:24:41;58.83;;;20.77;;
58240;SDS011;45058;55.772;38.224;2024-03-07T04:27:08;67.13;;;19.57;;
58240;SDS011;45058;55.772;38.224;2024-03-07T04:29:34;60.67;;;21.03;;
58240;SDS011;45058;55.772;38.224;2024-03-07T04:32:01;68.93;;;21.93;;
58240;SDS011;45058;55.772;38.224;2024-03-07T04:34:30;59.73;;;20.43;;
58240;SDS011;45058;55.772;38.224;2024-03-07T04:36:57;64.23;;;19.20;;
58240;SDS011;45058;55.772;38.224;2024-03-07T04:42:20;56.53;;;18.87;;
58240;SDS011;45058;55.772;38.224;2024-03-07T04:44:47;60.87;;;19.60;;
58240;SDS011;45058;55.772;38.224;2024-03-07T04:47:14;57.43;;;20.00;;
58240;SDS011;45058;55.772;38.224;2024-03-07T04:49:40;53.33;;;18.90;;
58240;SDS011;45058;55.772;38.224;2024-03-07T04:52:06;56.10;;;19.13;;
58240;SDS011;45058;55.772;38.224;2024-03-07T04:54:32;51.90;;;18.90;;
58240;SDS011;45058;55.772;38.224;2024-03-07T04:57:00;56.23;;;18.67;;
58240;SDS011;45058;55.772;38.224;2024-03-07T04:59:26;62.70;;;20.30;;
58240;SDS011;45058;55.772;38.224;2024-03-07T05:01:52;57.63;;;18.50;;
58240;SDS011;45058;55.772;38.224;2024-03-07T05:04:18;63.27;;;20.30;;
58240;SDS011;45058;55.772;38.224;2024-03-07T05:06:44;60.57;;;19.67;;
58240;SDS011;45058;55.772;38.224;2024-03-07T05:09:13;56.43;;;19.43;;
58240;SDS011;45058;55.772;38.224;2024-03-07T05:11:51;52.33;;;17.57;;
58240;SDS011;45058;55.772;38.224;2024-03-07T05:14:18;48.60;;;17.70;;
58240;SDS011;45058;55.772;38.224;2024-03-07T05:16:44;52.40;;;18.57;;
58240;SDS011;45058;55.772;38.224;2024-03-07T05:19:11;51.27;;;16.60;;
58240;SDS011;45058;55.772;38.224;2024-03-07T05:21:37;53.53;;;18.07;;
58240;SDS011;45058;55.772;38.224;2024-03-07T05:24:06;45.03;;;15.77;;
58240;SDS011;45058;55.772;38.224;2024-03-07T05:26:36;44.77;;;15.43;;
58240;SDS011;45058;55.772;38.224;2024-03-07T05:29:05;44.00;;;15.87;;
58240;SDS011;45058;55.772;38.224;2024-03-07T05:31:34;42.70;;;14.40;;
58240;SDS011;45058;55.772;38.224;2024-03-07T05:34:03;32.87;;;13.63;;
58240;SDS011;45058;55.772;38.224;2024-03-07T05:36:34;40.30;;;14.07;;
58240;SDS011;45058;55.772;38.224;2024-03-07T05:39:00;38.80;;;14.40;;
58240;SDS011;45058;55.772;38.224;2024-03-07T05:41:34;48.97;;;13.80;;
58240;SDS011;45058;55.772;38.224;2024-03-07T05:44:00;40.83;;;14.47;;
58240;SDS011;45058;55.772;38.224;2024-03-07T05:46:26;38.00;;;14.03;;
58240;SDS011;45058;55.772;38.224;2024-03-07T05:48:53;46.50;;;14.77;;
58240;SDS011;45058;55.772;38.224;2024-03-07T05:51:22;51.60;;;15.43;;
58240;SDS011;45058;55.772;38.224;2024-03-07T05:53:49;60.17;;;15.97;;
58240;SDS011;45058;55.772;38.224;2024-03-07T05:56:16;45.97;;;15.40;;
58240;SDS011;45058;55.772;38.224;2024-03-07T05:58:42;37.13;;;14.23;;
58240;SDS011;45058;55.772;38.224;2024-03-07T06:01:08;38.67;;;14.70;;
58240;SDS011;45058;55.772;38.224;2024-03-07T06:03:35;41.80;;;14.13;;
58240;SDS011;45058;55.772;38.224;2024-03-07T06:06:01;43.60;;;15.23;;
58240;SDS011;45058;55.772;38.224;2024-03-07T06:08:27;39.60;;;14.43;;
58240;SDS011;45058;55.772;38.224;2024-03-07T06:10:53;38.67;;;13.03;;
58240;SDS011;45058;55.772;38.224;2024-03-07T06:13:19;34.47;;;13.03;;
58240;SDS011;45058;55.772;38.224;2024-03-07T06:15:46;39.83;;;12.70;;
58240;SDS011;45058;55.772;38.224;2024-03-07T06:18:13;37.83;;;13.07;;
58240;SDS011;45058;55.772;38.224;2024-03-07T06:20:40;37.67;;;12.73;;
58240;SDS011;45058;55.772;38.224;2024-03-07T06:23:09;39.93;;;13.37;;
58240;SDS011;45058;55.772;38.224;2024-03-07T06:25:37;40.33;;;12.50;;
58240;SDS011;45058;55.772;38.224;2024-03-07T06:28:16;42.27;;;13.50;;
58240;SDS011;45058;55.772;38.224;2024-03-07T06:30:44;29.60;;;13.03;;
58240;SDS011;45058;55.772;38.224;2024-03-07T06:33:11;40.13;;;13.70;;
58240;SDS011;45058;55.772;38.224;2024-03-07T06:35:38;42.83;;;13.50;;
58240;SDS011;45058;55.772;38.224;2024-03-07T06:38:06;37.33;;;13.20;;
58240;SDS011;45058;55.772;38.224;2024-03-07T06:40:40;40.23;;;12.77;;
58240;SDS011;45058;55.772;38.224;2024-03-07T06:43:08;44.47;;;14.00;;
58240;SDS011;45058;55.772;38.224;2024-03-07T06:45:37;38.70;;;13.77;;
58240;SDS011;45058;55.772;38.224;2024-03-07T06:48:04;34.77;;;13.73;;
58240;SDS011;45058;55.772;38.224;2024-03-07T06:50:33;38.97;;;13.87;;
58240;SDS011;45058;55.772;38.224;2024-03-07T06:53:01;35.23;;;12.57;;
58240;SDS011;45058;55.772;38.224;2024-03-07T06:55:27;29.30;;;12.20;;
58240;SDS011;45058;55.772;38.224;2024-03-07T06:57:59;42.70;;;14.03;;
58240;SDS011;45058;55.772;38.224;2024-03-07T07:00:25;38.20;;;13.83;;
58240;SDS011;45058;55.772;38.224;2024-03-07T07:02:52;42.83;;;13.53;;
58240;SDS011;45058;55.772;38.224;2024-03-07T07:05:23;38.23;;;12.97;;
58240;SDS011;45058;55.772;38.224;2024-03-07T07:07:49;39.80;;;13.40;;
58240;SDS011;45058;55.772;38.224;2024-03-07T07:10:19;34.00;;;13.93;;
58240;SDS011;45058;55.772;38.224;2024-03-07T07:12:58;39.93;;;13.67;;
58240;SDS011;45058;55.772;38.224;2024-03-07T07:15:25;44.57;;;13.97;;
58240;SDS011;45058;55.772;38.224;2024-03-07T07:17:51;43.27;;;13.37;;
58240;SDS011;45058;55.772;38.224;2024-03-07T07:20:18;45.37;;;14.87;;
58240;SDS011;45058;55.772;38.224;2024-03-07T07:22:45;38.47;;;13.90;;
58240;SDS011;45058;55.772;38.224;2024-03-07T07:25:12;37.30;;;14.57;;
58240;SDS011;45058;55.772;38.224;2024-03-07T07:27:49;36.73;;;13.37;;
58240;SDS011;45058;55.772;38.224;2024-03-07T07:30:19;44.57;;;12.53;;
58240;SDS011;45058;55.772;38.224;2024-03-07T07:32:50;27.67;;;10.60;;
58240;SDS011;45058;55.772;38.224;2024-03-07T07:35:17;25.77;;;9.93;;
58240;SDS011;45058;55.772;38.224;2024-03-07T07:37:44;25.77;;;11.43;;
58240;SDS011;45058;55.772;38.224;2024-03-07T07:40:12;23.43;;;10.50;;
58240;SDS011;45058;55.772;38.224;2024-03-07T07:42:44;29.30;;;9.87;;
58240;SDS011;45058;55.772;38.224;2024-03-07T07:45:13;34.50;;;9.53;;
58240;SDS011;45058;55.772;38.224;2024-03-07T07:47:43;22.97;;;9.20;;
58240;SDS011;45058;55.772;38.224;2024-03-07T07:50:11;25.23;;;11.37;;
58240;SDS011;45058;55.772;38.224;2024-03-07T07:52:44;28.80;;;9.47;;
58240;SDS011;45058;55.772;38.224;2024-03-07T07:55:14;33.03;;;10.33;;
58240;SDS011;45058;55.772;38.224;2024-03-07T07:57:44;31.50;;;9.47;;
58240;SDS011;45058;55.772;38.224;2024-03-07T08:05:21;28.97;;;11.10;;
58240;SDS011;45058;55.772;38.224;2024-03-07T08:07:54;23.43;;;10.43;;
58240;SDS011;45058;55.772;38.224;2024-03-07T08:10:26;28.87;;;10.50;;
58240;SDS011;45058;55.772;38.224;2024-03-07T08:12:55;20.00;;;9.20;;
58240;SDS011;45058;55.772;38.224;2024-03-07T08:15:23;27.23;;;10.20;;
58240;SDS011;45058;55.772;38.224;2024-03-07T08:17:50;24.47;;;10.10;;
58240;SDS011;45058;55.772;38.224;2024-03-07T08:20:18;32.87;;;10.20;;
58240;SDS011;45058;55.772;38.224;2024-03-07T08:22:52;26.97;;;10.63;;
58240;SDS011;45058;55.772;38.224;2024-03-07T08:25:21;30.30;;;9.80;;
58240;SDS011;45058;55.772;38.224;2024-03-07T08:27:52;24.60;;;10.03;;
58240;SDS011;45058;55.772;38.224;2024-03-07T08:30:19;19.67;;;9.80;;
58240;SDS011;45058;55.772;38.224;2024-03-07T08:32:47;20.33;;;8.50;;
58240;SDS011;45058;55.772;38.224;2024-03-07T08:35:21;32.60;;;8.27;;
58240;SDS011;45058;55.772;38.224;2024-03-07T08:37:48;14.00;;;6.07;;
58240;SDS011;45058;55.772;38.224;2024-03-07T08:40:28;16.83;;;6.63;;
58240;SDS011;45058;55.772;38.224;2024-03-07T08:43:00;13.80;;;5.97;;
58240;SDS011;45058;55.772;38.224;2024-03-07T08:45:27;15.20;;;5.87;;
58240;SDS011;45058;55.772;38.224;2024-03-07T08:47:55;12.90;;;5.83;;
58240;SDS011;45058;55.772;38.224;2024-03-07T08:50:23;14.73;;;5.50;;
58240;SDS011;45058;55.772;38.224;2024-03-07T08:52:49;13.90;;;4.63;;
58240;SDS011;45058;55.772;38.224;2024-03-07T08:55:16;13.27;;;4.87;;
58240;SDS011;45058;55.772;38.224;2024-03-07T08:57:45;24.87;;;4.33;;
58240;SDS011;45058;55.772;38.224;2024-03-07T09:00:15;16.87;;;4.93;;
58240;SDS011;45058;55.772;38.224;2024-03-07T09:02:51;12.00;;;4.10;;
58240;SDS011;45058;55.772;38.224;2024-03-07T09:05:19;16.03;;;5.17;;
58240;SDS011;45058;55.772;38.224;2024-03-07T09:07:49;20.03;;;4.63;;
58240;SDS011;45058;55.772;38.224;2024-03-07T09:10:16;14.67;;;4.80;;
58240;SDS011;45058;55.772;38.224;2024-03-07T09:12:45;22.00;;;4.70;;
58240;SDS011;45058;55.772;38.224;2024-03-07T09:15:15;15.77;;;4.60;;
58240;SDS011;45058;55.772;38.224;2024-03-07T09:17:43;13.70;;;4.00;;
58240;SDS011;45058;55.772;38.224;2024-03-07T09:20:10;11.30;;;4.20;;
58240;SDS011;45058;55.772;38.224;2024-03-07T09:22:42;15.17;;;4.00;;
58240;SDS011;45058;55.772;38.224;2024-03-07T09:25:13;9.27;;;3.63;;
58240;SDS011;45058;55.772;38.224;2024-03-07T09:27:39;11.73;;;3.20;;
58240;SDS011;45058;55.772;38.224;2024-03-07T09:30:06;19.17;;;3.83;;
58240;SDS011;45058;55.772;38.224;2024-03-07T09:32:38;15.70;;;4.20;;
58240;SDS011;45058;55.772;38.224;2024-03-07T09:35:09;14.17;;;3.33;;
58240;SDS011;45058;55.772;38.224;2024-03-07T09:37:40;9.97;;;3.13;;
58240;SDS011;45058;55.772;38.224;2024-03-07T09:40:07;11.00;;;3.00;;
58240;SDS011;45058;55.772;38.224;2024-03-07T09:42:48;7.83;;;3.20;;
58240;SDS011;45058;55.772;38.224;2024-03-07T09:45:19;9.00;;;3.53;;
58240;SDS011;45058;55.772;38.224;2024-03-07T09:47:46;11.43;;;3.37;;
58240;SDS011;45058;55.772;38.224;2024-03-07T09:50:15;10.50;;;3.27;;
58240;SDS011;45058;55.772;38.224;2024-03-07T09:52:45;8.63;;;3.40;;
58240;SDS011;45058;55.772;38.224;2024-03-07T09:55:16;13.53;;;3.57;;
58240;SDS011;45058;55.772;38.224;2024-03-07T09:57:47;12.13;;;4.10;;
58240;SDS011;45058;55.772;38.224;2024-03-07T10:00:17;11.00;;;3.43;;
58240;SDS011;45058;55.772;38.224;2024-03-07T10:03:31;9.43;;;3.60;;
58240;SDS011;45058;55.772;38.224;2024-03-07T10:05:41;11.00;;;3.13;;
58240;SDS011;45058;55.772;38.224;2024-03-07T10:08:08;9.30;;;3.20;;
58240;SDS011;45058;55.772;38.224;2024-03-07T10:10:34;8.03;;;3.63;;
58240;SDS011;45058;55.772;38.224;2024-03-07T10:13:00;12.37;;;3.50;;
58240;SDS011;45058;55.772;38.224;2024-03-07T10:15:33;9.93;;;3.80;;
58240;SDS011;45058;55.772;38.224;2024-03-07T10:18:00;10.73;;;3.50;;
58240;SDS011;45058;55.772;38.224;2024-03-07T10:20:26;6.20;;;2.90;;
58240;SDS011;45058;55.772;38.224;2024-03-07T10:22:53;7.47;;;3.63;;
58240;SDS011;45058;55.772;38.224;2024-03-07T10:25:23;8.20;;;3.43;;
58240;SDS011;45058;55.772;38.224;2024-03-07T10:27:53;13.43;;;4.23;;
58240;SDS011;45058;55.772;38.224;2024-03-07T10:30:20;9.27;;;4.00;;
58240;SDS011;45058;55.772;38.224;2024-03-07T10:32:47;12.47;;;4.43;;
58240;SDS011;45058;55.772;38.224;2024-03-07T10:35:14;12.77;;;4.50;;
58240;SDS011;45058;55.772;38.224;2024-03-07T10:37:47;13.47;;;4.20;;
58240;SDS011;45058;55.772;38.224;2024-03-07T10:40:13;7.73;;;3.60;;
58240;SDS011;45058;55.772;38.224;2024-03-07T10:42:45;14.17;;;3.77;;
58240;SDS011;45058;55.772;38.224;2024-03-07T10:45:20;9.87;;;3.87;;
58240;SDS011;45058;55.772;38.224;2024-03-07T10:47:57;17.20;;;4.00;;
58240;SDS011;45058;55.772;38.224;2024-03-07T10:50:30;9.37;;;3.57;;
58240;SDS011;45058;55.772;38.224;2024-03-07T10:55:52;13.02;;;3.80;;
58240;SDS011;45058;55.772;38.224;2024-03-07T11:01:08;18.97;;;4.43;;
58240;SDS011;45058;55.772;38.224;2024-03-07T11:03:36;7.90;;;3.40;;
58240;SDS011;45058;55.772;38.224;2024-03-07T11:06:04;10.93;;;4.27;;
58240;SDS011;45058;55.772;38.224;2024-03-07T11:08:33;9.57;;;3.70;;
58240;SDS011;45058;55.772;38.224;2024-03-07T11:11:00;6.90;;;4.20;;
58240;SDS011;45058;55.772;38.224;2024-03-07T11:13:27;10.23;;;3.70;;
58240;SDS011;45058;55.772;38.224;2024-03-07T11:15:54;6.97;;;3.30;;
58240;SDS011;45058;55.772;38.224;2024-03-07T11:18:23;10.00;;;4.13;;
58240;SDS011;45058;55.772;38.224;2024-03-07T11:20:52;10.47;;;3.83;;
58240;SDS011;45058;55.772;38.224;2024-03-07T11:23:29;8.27;;;3.13;;
58240;SDS011;45058;55.772;38.224;2024-03-07T11:26:05;5.77;;;3.13;;
58240;SDS011;45058;55.772;38.224;2024-03-07T11:28:40;9.70;;;2.90;;
58240;SDS011;45058;55.772;38.224;2024-03-07T11:33:38;7.17;;;3.40;;
58240;SDS011;45058;55.772;38.224;2024-03-07T11:36:07;8.13;;;3.83;;
58240;SDS011;45058;55.772;38.224;2024-03-07T11:38:35;7.90;;;3.50;;
58240;SDS011;45058;55.772;38.224;2024-03-07T11:41:03;10.93;;;3.63;;
58240;SDS011;45058;55.772;38.224;2024-03-07T11:43:31;9.60;;;3.67;;
58240;SDS011;45058;55.772;38.224;2024-03-07T11:45:58;6.97;;;2.83;;
58240;SDS011;45058;55.772;38.224;2024-03-07T11:48:25;7.53;;;2.80;;
58240;SDS011;45058;55.772;38.224;2024-03-07T11:50:51;6.90;;;2.97;;
58240;SDS011;45058;55.772;38.224;2024-03-07T11:53:20;8.43;;;3.23;;
58240;SDS011;45058;55.772;38.224;2024-03-07T11:55:47;7.07;;;3.07;;
58240;SDS011;45058;55.772;38.224;2024-03-07T12:00:42;10.60;;;3.90;;
58240;SDS011;45058;55.772;38.224;2024-03-07T12:03:14;6.93;;;2.97;;
58240;SDS011;45058;55.772;38.224;2024-03-07T12:05:44;8.83;;;3.43;;
58240;SDS011;45058;55.772;38.224;2024-03-07T12:08:12;7.90;;;2.93;;
58240;SDS011;45058;55.772;38.224;2024-03-07T12:10:38;5.93;;;3.10;;
58240;SDS011;45058;55.772;38.224;2024-03-07T12:13:06;7.93;;;2.90;;
58240;SDS011;45058;55.772;38.224;2024-03-07T12:15:33;9.20;;;3.57;;
58240;SDS011;45058;55.772;38.224;2024-03-07T12:18:01;5.50;;;3.23;;
58240;SDS011;45058;55.772;38.224;2024-03-07T12:20:28;10.57;;;3.23;;
58240;SDS011;45058;55.772;38.224;2024-03-07T12:23:00;7.40;;;3.40;;
58240;SDS011;45058;55.772;38.224;2024-03-07T12:25:34;8.10;;;2.70;;
58240;SDS011;45058;55.772;38.224;2024-03-07T12:28:12;9.60;;;3.23;;
58240;SDS011;45058;55.772;38.224;2024-03-07T12:33:12;12.07;;;3.08;;
58240;SDS011;45058;55.772;38.224;2024-03-07T12:35:51;4.20;;;2.70;;
58240;SDS011;45058;55.772;38.224;2024-03-07T12:38:27;8.20;;;3.15;;
58240;SDS011;45058;55.772;38.224;2024-03-07T12:41:05;8.87;;;2.97;;
58240;SDS011;45058;55.772;38.224;2024-03-07T12:43:41;6.90;;;2.85;;
58240;SDS011;45058;55.772;38.224;2024-03-07T12:46:10;11.25;;;3.50;;
58240;SDS011;45058;55.772;38.224;2024-03-07T12:48:41;5.53;;;2.97;;
58240;SDS011;45058;55.772;38.224;2024-03-07T12:51:10;8.10;;;2.97;;
58240;SDS011;45058;55.772;38.224;2024-03-07T12:53:36;6.90;;;2.72;;
58240;SDS011;45058;55.772;38.224;2024-03-07T12:56:03;10.65;;;3.00;;
58240;SDS011;45058;55.772;38.224;2024-03-07T12:58:29;7.03;;;3.27;;
58240;SDS011;45058;55.772;38.224;2024-03-07T13:00:56;9.95;;;3.28;;
58240;SDS011;45058;55.772;38.224;2024-03-07T13:03:23;5.83;;;2.40;;
58240;SDS011;45058;55.772;38.224;2024-03-07T13:08:27;9.33;;;2.90;;
58240;SDS011;45058;55.772;38.224;2024-03-07T13:10:57;7.17;;;3.10;;
58240;SDS011;45058;55.772;38.224;2024-03-07T13:13:24;10.10;;;2.93;;
58240;SDS011;45058;55.772;38.224;2024-03-07T13:15:51;6.18;;;2.88;;
58240;SDS011;45058;55.772;38.224;2024-03-07T13:18:30;6.50;;;2.80;;
58240;SDS011;45058;55.772;38.224;2024-03-07T13:20:59;10.05;;;3.00;;
58240;SDS011;45058;55.772;38.224;2024-03-07T13:23:29;5.82;;;2.97;;
58240;SDS011;45058;55.772;38.224;2024-03-07T13:25:55;7.30;;;4.22;;
58240;SDS011;45058;55.772;38.224;2024-03-07T13:28:22;12.73;;;5.35;;
58240;SDS011;45058;55.772;38.224;2024-03-07T13:30:51;7.88;;;5.00;;
58240;SDS011;45058;55.772;38.224;2024-03-07T13:33:20;8.82;;;3.42;;
58240;SDS011;45058;55.772;38.224;2024-03-07T13:35:46;8.60;;;3.15;;
58240;SDS011;45058;55.772;38.224;2024-03-07T13:38:13;8.52;;;2.85;;
58240;SDS011;45058;55.772;38.224;2024-03-07T13:40:41;9.07;;;3.17;;
58240;SDS011;45058;55.772;38.224;2024-03-07T13:43:07;11.00;;;3.80;;
58240;SDS011;45058;55.772;38.224;2024-03-07T13:45:34;5.93;;;2.95;;
58240;SDS011;45058;55.772;38.224;2024-03-07T13:48:09;8.32;;;3.03;;
58240;SDS011;45058;55.772;38.224;2024-03-07T13:50:39;6.47;;;3.00;;
58240;SDS011;45058;55.772;38.224;2024-03-07T13:53:10;9.38;;;3.67;;
58240;SDS011;45058;55.772;38.224;2024-03-07T13:55:45;7.47;;;3.17;;
58240;SDS011;45058;55.772;38.224;2024-03-07T14:06:32;7.97;;;3.78;;
58240;SDS011;45058;55.772;38.224;2024-03-07T14:17:21;9.20;;;3.50;;
58240;SDS011;45058;55.772;38.224;2024-03-07T14:29:25;12.07;;;3.63;;
58240;SDS011;45058;55.772;38.224;2024-03-07T14:31:58;14.30;;;4.40;;
58240;SDS011;45058;55.772;38.224;2024-03-07T14:37:02;11.07;;;4.63;;
58240;SDS011;45058;55.772;38.224;2024-03-07T14:39:37;12.90;;;3.97;;
58240;SDS011;45058;55.772;38.224;2024-03-07T14:42:05;8.77;;;4.63;;
58240;SDS011;45058;55.772;38.224;2024-03-07T14:44:47;12.63;;;5.07;;
58240;SDS011;45058;55.772;38.224;2024-03-07T14:47:16;11.43;;;5.97;;
58240;SDS011;45058;55.772;38.224;2024-03-07T14:49:45;14.27;;;5.50;;
58240;SDS011;45058;55.772;38.224;2024-03-07T14:52:11;13.80;;;6.70;;
58240;SDS011;45058;55.772;38.224;2024-03-07T14:54:38;13.30;;;6.20;;
58240;SDS011;45058;55.772;38.224;2024-03-07T14:57:07;13.53;;;6.37;;
58240;SDS011;45058;55.772;38.224;2024-03-07T14:59:36;12.20;;;6.13;;
58240;SDS011;45058;55.772;38.224;2024-03-07T15:02:03;15.93;;;6.70;;
58240;SDS011;45058;55.772;38.224;2024-03-07T15:04:34;19.63;;;8.13;;
58240;SDS011;45058;55.772;38.224;2024-03-07T15:07:00;15.50;;;7.20;;
58240;SDS011;45058;55.772;38.224;2024-03-07T15:09:28;13.10;;;5.73;;
58240;SDS011;45058;55.772;38.224;2024-03-07T15:11:56;13.37;;;6.50;;
58240;SDS011;45058;55.772;38.224;2024-03-07T15:14:23;16.53;;;6.97;;
58240;SDS011;45058;55.772;38.224;2024-03-07T15:16:49;14.80;;;6.47;;
58240;SDS011;45058;55.772;38.224;2024-03-07T15:19:15;16.87;;;6.80;;
58240;SDS011;45058;55.772;38.224;2024-03-07T15:21:41;15.47;;;7.17;;